Time;durP1;ratioP1;P1;durP2;ratioP2;P2;SDS_P1;SDS_P2;PMS_P1;PMS_P2;Temp;Humidity;BMP_temperature;BMP_pressure;BME280_temperature;BME280_humidity;BME280_pressure;Samples;Min_cycle;Max_cycle;Signal;HPM_P1;HPM_P2
2021/11/28 00:01:53;;;;;;;36.30;18.10;;;;;;;2.41;72.44;97225.09;102917;1322;98695;-70
2021/11/28 00:04:24;;;;;;;34.50;18.00;;;;;;;2.44;72.62;97216.52;102708;1320;112056;-69
2021/11/28 00:07:05;;;;;;;34.20;19.10;;;;;;;2.43;72.88;97218.67;102772;1320;97917;-69
2021/11/28 00:14:53;;;;;;;37.10;18.00;;;;;;;2.50;72.86;97219.40;102733;1319;97864;-69
2021/11/28 00:17:23;;;;;;;37.10;21.00;;;;;;;2.53;73.07;97220.77;102842;1319;111550;-69
2021/11/28 00:19:52;;;;;;;37.10;19.80;;;;;;;2.56;72.96;97213.37;102801;1324;97938;-70
2021/11/28 00:22:22;;;;;;;36.10;18.60;;;;;;;2.60;72.83;97217.69;102856;1320;108440;-70
2021/11/28 00:24:52;;;;;;;34.60;18.40;;;;;;;2.63;72.80;97221.84;102749;1325;97873;-70
2021/11/28 00:27:19;;;;;;;35.60;16.90;;;;;;;2.67;72.81;97217.50;102838;1324;98018;-71
2021/11/28 00:29:48;;;;;;;33.30;17.20;;;;;;;2.72;72.76;97218.23;102809;1325;112043;-69
2021/11/28 00:32:16;;;;;;;32.80;16.50;;;;;;;2.78;72.76;97219.93;102797;1323;98016;-69
2021/11/28 00:34:43;;;;;;;32.00;17.20;;;;;;;2.84;73.07;97220.04;102718;1324;106508;-69
2021/11/28 00:37:13;;;;;;;29.80;15.40;;;;;;;2.89;73.14;97218.98;102782;1325;97904;-70
2021/11/28 00:39:43;;;;;;;31.30;16.40;;;;;;;2.95;73.04;97220.28;102695;1319;97856;-69
2021/11/28 00:42:12;;;;;;;29.20;15.80;;;;;;;3.00;72.93;97222.23;102794;1323;112194;-71
2021/11/28 00:44:42;;;;;;;27.60;15.20;;;;;;;3.04;73.29;97228.23;102773;1324;96319;-70
2021/11/28 00:47:12;;;;;;;33.60;16.30;;;;;;;3.08;73.21;97227.92;102740;1323;105587;-68
2021/11/28 00:49:51;;;;;;;32.40;15.60;;;;;;;3.12;73.12;97225.91;102796;1320;97914;-71
2021/11/28 00:52:21;;;;;;;27.80;14.50;;;;;;;3.17;73.21;97225.79;102721;1324;98518;-71
2021/11/28 00:54:49;;;;;;;29.80;16.10;;;;;;;3.19;73.11;97229.60;102714;1325;111462;-69
2021/11/28 00:57:17;;;;;;;28.00;15.10;;;;;;;3.23;73.20;97225.48;102526;1324;97898;-70
2021/11/28 00:59:45;;;;;;;31.80;16.10;;;;;;;3.27;73.40;97218.52;102558;1319;107732;-70
2021/11/28 01:02:12;;;;;;;32.00;16.30;;;;;;;3.30;73.43;97215.89;102587;1319;97511;-69
2021/11/28 01:04:45;;;;;;;29.80;15.80;;;;;;;3.32;73.38;97217.81;102741;1318;96482;-71
2021/11/28 01:07:14;;;;;;;31.90;15.30;;;;;;;3.34;73.23;97222.79;102620;1324;112121;-68
2021/11/28 01:09:42;;;;;;;32.80;17.00;;;;;;;3.37;73.40;97219.94;102746;1323;97903;-69
2021/11/28 01:12:12;;;;;;;33.50;16.70;;;;;;;3.37;73.42;97216.39;102683;1320;109234;-70
2021/11/28 01:14:41;;;;;;;30.00;16.80;;;;;;;3.39;73.38;97209.59;103698;1320;97912;-69
2021/11/28 01:17:10;;;;;;;31.90;17.00;;;;;;;3.40;73.31;97204.42;102602;1322;96543;-68
2021/11/28 01:19:38;;;;;;;31.00;15.60;;;;;;;3.38;73.05;97204.96;102668;1324;112520;-70
2021/11/28 01:22:12;;;;;;;31.70;16.10;;;;;;;3.36;73.01;97209.47;102823;1324;96405;-70
2021/11/28 01:24:43;;;;;;;28.70;15.10;;;;;;;3.32;73.12;97209.08;102765;1320;105777;-69
2021/11/28 01:27:17;;;;;;;34.30;17.00;;;;;;;3.31;73.07;97212.11;102694;1323;98972;-68
2021/11/28 01:29:45;;;;;;;35.60;17.60;;;;;;;3.33;73.55;97208.52;102689;1324;97932;-70
2021/11/28 01:32:14;;;;;;;35.00;15.40;;;;;;;3.34;73.26;97204.38;102693;1320;111457;-68
2021/11/28 01:34:43;;;;;;;29.70;15.10;;;;;;;3.36;73.44;97202.11;102733;1323;97839;-68
2021/11/28 01:37:12;;;;;;;28.90;14.40;;;;;;;3.35;73.50;97197.06;102663;1326;107137;-69
2021/11/28 01:39:45;;;;;;;29.60;14.80;;;;;;;3.30;73.54;97197.11;102772;1320;97895;-69
2021/11/28 01:42:34;;;;;;;33.10;17.40;;;;;;;3.25;73.81;97200.48;102795;1320;98009;-68
2021/11/28 01:45:05;;;;;;;29.60;15.00;;;;;;;3.24;73.65;97194.95;102727;1324;111490;-69
2021/11/28 01:47:35;;;;;;;30.60;16.10;;;;;;;3.24;73.71;97200.89;102838;1320;96213;-69
2021/11/28 01:50:06;;;;;;;31.30;16.70;;;;;;;3.25;73.84;97202.27;102836;1323;107970;-69
2021/11/28 01:52:36;;;;;;;31.00;16.80;;;;;;;3.27;73.64;97202.09;102595;1325;98473;-69
2021/11/28 01:55:08;;;;;;;30.90;17.60;;;;;;;3.32;73.84;97196.48;102863;1319;95645;-68
2021/11/28 01:57:38;;;;;;;31.70;16.60;;;;;;;3.37;73.78;97195.92;102771;1319;111478;-68
2021/11/28 02:00:10;;;;;;;29.20;15.30;;;;;;;3.41;73.84;97193.02;102860;1320;97857;-68
2021/11/28 02:02:39;;;;;;;30.00;15.60;;;;;;;3.45;74.19;97189.04;102774;1320;107647;-68
2021/11/28 02:05:09;;;;;;;31.20;16.40;;;;;;;3.43;73.87;97183.42;102778;1324;98629;-70
2021/11/28 02:07:37;;;;;;;32.60;17.40;;;;;;;3.39;74.06;97186.16;102911;1318;97987;-70
2021/11/28 02:10:07;;;;;;;33.30;18.00;;;;;;;3.37;74.05;97179.25;102789;1318;112643;-70
2021/11/28 02:12:37;;;;;;;29.60;15.80;;;;;;;3.39;73.77;97181.59;102847;1320;95280;-70
2021/11/28 02:15:08;;;;;;;31.60;16.60;;;;;;;3.40;74.36;97184.14;102831;1323;107863;-70
2021/11/28 02:17:37;;;;;;;31.00;17.60;;;;;;;3.38;74.49;97175.70;102731;1318;97870;-70
2021/11/28 02:20:08;;;;;;;35.20;18.50;;;;;;;3.34;74.41;97171.45;102795;1320;96390;-70
2021/11/28 02:22:43;;;;;;;32.10;16.40;;;;;;;3.32;74.19;97174.19;102603;1319;111377;-71
2021/11/28 02:25:12;;;;;;;33.40;17.50;;;;;;;3.32;74.45;97170.31;102728;1320;98038;-70
2021/11/28 02:27:40;;;;;;;30.80;16.40;;;;;;;3.36;74.26;97165.52;102825;1325;107807;-70
2021/11/28 02:30:11;;;;;;;32.40;17.10;;;;;;;3.39;74.25;97162.83;102689;1320;96457;-70
2021/11/28 02:32:38;;;;;;;33.30;17.70;;;;;;;3.43;74.20;97160.65;102749;1320;97968;-70
2021/11/28 02:35:06;;;;;;;31.60;16.60;;;;;;;3.46;74.37;97156.23;102581;1325;111461;-68
2021/11/28 02:37:34;;;;;;;33.60;17.40;;;;;;;3.49;74.28;97151.55;102699;1320;98021;-69
2021/11/28 02:40:06;;;;;;;37.60;22.20;;;;;;;3.54;74.29;97153.15;102771;1325;107841;-68
2021/11/28 02:42:36;;;;;;;38.90;22.20;;;;;;;3.56;74.28;97151.41;102668;1325;97870;-69
2021/11/28 02:45:08;;;;;;;44.40;24.60;;;;;;;3.55;74.29;97144.81;102856;1319;97915;-69
2021/11/28 02:47:41;;;;;;;45.10;25.90;;;;;;;3.54;74.37;97142.48;102959;1319;112229;-68
2021/11/28 02:50:14;;;;;;;44.60;26.30;;;;;;;3.52;74.38;97141.93;102979;1320;97911;-69
2021/11/28 02:53:09;;;;;;;42.40;24.50;;;;;;;3.51;74.10;97144.75;102761;1325;125573;-69
2021/11/28 02:55:42;;;;;;;40.10;22.00;;;;;;;3.53;74.17;97147.42;102768;1326;97899;-69
2021/11/28 02:58:14;;;;;;;43.40;23.60;;;;;;;3.54;74.42;97144.00;102973;1320;97927;-70
2021/11/28 03:00:49;;;;;;;38.80;21.30;;;;;;;3.57;74.39;97140.30;102885;1324;111425;-69
2021/11/28 03:03:21;;;;;;;39.10;21.60;;;;;;;3.60;74.21;97150.29;102832;1323;98522;-69
2021/11/28 03:05:53;;;;;;;39.90;22.50;;;;;;;3.59;74.14;97151.92;102824;1325;107704;-69
2021/11/28 03:08:25;;;;;;;43.90;24.20;;;;;;;3.57;74.07;97145.92;102880;1325;98632;-69
2021/11/28 03:10:57;;;;;;;38.00;21.70;;;;;;;3.55;74.23;97146.91;102970;1325;96323;-68
2021/11/28 03:13:32;;;;;;;47.60;26.20;;;;;;;3.53;74.35;97142.70;102841;1326;111455;-68
2021/11/28 03:16:08;;;;;;;45.30;25.90;;;;;;;3.52;74.34;97140.33;102736;1320;97931;-69
2021/11/28 03:18:38;;;;;;;46.40;27.50;;;;;;;3.53;74.26;97143.77;102839;1325;107838;-70
2021/11/28 03:21:20;;;;;;;45.90;27.50;;;;;;;3.51;74.33;97138.83;102879;1318;98033;-68
2021/11/28 03:23:55;;;;;;;43.90;24.90;;;;;;;3.50;74.15;97136.40;102873;1320;97902;-68
2021/11/28 03:26:29;;;;;;;45.00;26.90;;;;;;;3.51;74.49;97127.26;102929;1324;111773;-68
2021/11/28 03:29:07;;;;;;;51.50;26.80;;;;;;;3.51;74.26;97132.84;102856;1322;97930;-68
2021/11/28 03:31:41;;;;;;;54.30;30.40;;;;;;;3.52;74.33;97137.86;102721;1325;108539;-69
2021/11/28 03:34:16;;;;;;;54.10;30.80;;;;;;;3.51;74.34;97133.06;102769;1321;97902;-68
2021/11/28 03:36:58;;;;;;;55.30;31.30;;;;;;;3.50;74.15;97129.60;102925;1322;95256;-70
2021/11/28 03:39:31;;;;;;;61.30;34.70;;;;;;;3.50;74.31;97135.88;102726;1325;113352;-70
2021/11/28 03:42:05;;;;;;;60.40;33.50;;;;;;;3.50;74.08;97130.83;102783;1318;97873;-70
2021/11/28 03:44:37;;;;;;;58.30;32.20;;;;;;;3.50;74.35;97133.44;102821;1319;107781;-71
2021/11/28 03:47:07;;;;;;;56.00;32.70;;;;;;;3.51;74.35;97130.08;102809;1320;96265;-72
2021/11/28 03:49:35;;;;;;;59.00;35.30;;;;;;;3.51;74.21;97129.34;102788;1319;96933;-68
2021/11/28 03:52:06;;;;;;;68.00;42.30;;;;;;;3.50;74.14;97134.83;102781;1320;111480;-69
2021/11/28 03:54:39;;;;;;;76.30;46.70;;;;;;;3.50;74.26;97137.80;102908;1323;97963;-69
2021/11/28 03:57:08;;;;;;;81.00;49.80;;;;;;;3.51;74.14;97135.00;102872;1322;108357;-70
2021/11/28 03:59:36;;;;;;;82.00;48.90;;;;;;;3.50;74.14;97129.61;102807;1322;98019;-71
2021/11/28 04:02:04;;;;;;;83.50;48.90;;;;;;;3.49;74.27;97134.59;102834;1321;95197;-71
2021/11/28 04:04:38;;;;;;;93.00;53.60;;;;;;;3.49;74.24;97139.67;102812;1318;111531;-69
2021/11/28 04:07:06;;;;;;;89.40;49.40;;;;;;;3.49;74.01;97142.66;102790;1320;97780;-69
2021/11/28 04:09:35;;;;;;;87.40;47.00;;;;;;;3.49;74.19;97144.91;102845;1318;107664;-69
2021/11/28 04:12:07;;;;;;;79.50;43.90;;;;;;;3.49;74.09;97143.71;102746;1322;99385;-69
2021/11/28 04:14:34;;;;;;;75.00;41.30;;;;;;;3.48;74.14;97149.02;102866;1322;98009;-69
2021/11/28 04:17:05;;;;;;;70.80;39.50;;;;;;;3.48;74.43;97146.91;102806;1319;112122;-69
2021/11/28 04:19:37;;;;;;;68.10;38.00;;;;;;;3.49;74.24;97143.88;102855;1320;97879;-69
2021/11/28 04:22:08;;;;;;;58.70;34.10;;;;;;;3.49;74.43;97142.45;102708;1325;108741;-68
2021/11/28 04:24:36;;;;;;;59.10;33.40;;;;;;;3.49;74.22;97149.48;102817;1325;97979;-70
2021/11/28 04:27:04;;;;;;;57.60;32.60;;;;;;;3.49;74.21;97152.64;102878;1319;97941;-68
2021/11/28 04:29:32;;;;;;;57.30;33.80;;;;;;;3.49;74.32;97151.77;102883;1318;111975;-69
2021/11/28 04:31:59;;;;;;;56.20;30.70;;;;;;;3.48;74.19;97147.09;102784;1322;97756;-68
2021/11/28 04:34:30;;;;;;;57.50;31.80;;;;;;;3.48;74.08;97155.88;102845;1326;108236;-69
2021/11/28 04:36:58;;;;;;;59.10;32.60;;;;;;;3.48;74.22;97155.85;102848;1320;98087;-69
2021/11/28 04:39:26;;;;;;;58.60;33.90;;;;;;;3.48;74.49;97156.58;103018;1319;98038;-69
2021/11/28 04:41:54;;;;;;;55.50;32.90;;;;;;;3.48;74.12;97159.20;102898;1320;111442;-69
2021/11/28 04:44:23;;;;;;;62.40;34.30;;;;;;;3.48;74.39;97156.42;102761;1322;97821;-68
2021/11/28 04:46:55;;;;;;;57.30;32.70;;;;;;;3.46;74.40;97155.47;102907;1324;107916;-69
2021/11/28 04:49:29;;;;;;;58.10;33.60;;;;;;;3.48;74.45;97160.96;102783;1319;97865;-68
2021/11/28 04:51:57;;;;;;;57.90;33.70;;;;;;;3.50;74.36;97166.77;102889;1319;97896;-69
2021/11/28 04:54:25;;;;;;;57.20;33.10;;;;;;;3.51;74.39;97169.67;102873;1320;112141;-69
2021/11/28 04:56:53;;;;;;;61.00;34.70;;;;;;;3.53;74.48;97171.64;102732;1325;96210;-69
2021/11/28 04:59:21;;;;;;;56.20;33.60;;;;;;;3.54;74.39;97169.47;102898;1325;108383;-69
2021/11/28 05:01:54;;;;;;;59.70;34.70;;;;;;;3.55;74.22;97170.46;102908;1318;95920;-70
2021/11/28 05:04:29;;;;;;;59.90;34.30;;;;;;;3.54;74.08;97166.08;102809;1322;96352;-68
2021/11/28 05:06:56;;;;;;;62.10;35.80;;;;;;;3.55;74.42;97166.34;102790;1322;112134;-70
2021/11/28 05:09:29;;;;;;;58.40;34.70;;;;;;;3.56;74.25;97170.15;102990;1319;98252;-70
2021/11/28 05:11:58;;;;;;;60.10;35.40;;;;;;;3.57;74.39;97171.67;102849;1322;108450;-68
2021/11/28 05:14:28;;;;;;;62.30;36.10;;;;;;;3.58;74.52;97168.10;102940;1320;95280;-70
2021/11/28 05:16:56;;;;;;;61.90;35.10;;;;;;;3.60;74.25;97163.09;102841;1322;95229;-67
2021/11/28 05:19:23;;;;;;;66.10;38.20;;;;;;;3.60;74.35;97156.20;102840;1321;112052;-69
2021/11/28 05:21:52;;;;;;;57.10;34.00;;;;;;;3.61;74.29;97159.98;102837;1323;97909;-69
2021/11/28 05:24:19;;;;;;;59.40;35.90;;;;;;;3.62;74.35;97168.33;102856;1319;107636;-70
2021/11/28 05:26:47;;;;;;;60.40;35.00;;;;;;;3.62;74.18;97169.72;102870;1322;98006;-69
2021/11/28 05:29:18;;;;;;;62.50;34.90;;;;;;;3.62;74.28;97167.16;102917;1318;97775;-70
2021/11/28 05:31:49;;;;;;;64.60;36.20;;;;;;;3.61;74.36;97163.35;102761;1322;111149;-68
2021/11/28 05:34:17;;;;;;;70.10;38.50;;;;;;;3.63;74.30;97161.11;102819;1322;95301;-68
2021/11/28 05:36:45;;;;;;;72.30;39.30;;;;;;;3.63;74.38;97156.66;102809;1322;108746;-69
2021/11/28 05:39:16;;;;;;;64.90;36.50;;;;;;;3.65;74.59;97155.15;102728;1319;97928;-68
2021/11/28 05:41:44;;;;;;;67.40;36.80;;;;;;;3.67;74.36;97157.11;102806;1318;97886;-70
2021/11/28 05:44:12;;;;;;;65.40;38.00;;;;;;;3.67;74.33;97157.08;102930;1322;112354;-71
2021/11/28 05:46:47;;;;;;;67.70;39.20;;;;;;;3.67;74.37;97157.41;102793;1319;97925;-68
2021/11/28 05:49:18;;;;;;;67.50;38.30;;;;;;;3.68;74.30;97157.87;102805;1322;108584;-69
2021/11/28 05:51:46;;;;;;;70.60;38.70;;;;;;;3.70;74.51;97156.53;102878;1319;97906;-68
2021/11/28 05:54:14;;;;;;;72.30;38.80;;;;;;;3.71;74.40;97154.36;102843;1321;96798;-69
2021/11/28 05:56:42;;;;;;;73.60;43.20;;;;;;;3.71;74.35;97149.73;102777;1318;114344;-68
2021/11/28 05:59:12;;;;;;;68.20;39.70;;;;;;;3.73;74.39;97153.80;102809;1320;97914;-70
2021/11/28 06:01:41;;;;;;;70.40;40.50;;;;;;;3.75;74.48;97149.50;102743;1320;108454;-69
2021/11/28 06:04:11;;;;;;;73.00;38.70;;;;;;;3.77;74.48;97153.06;102860;1322;97907;-70
2021/11/28 06:06:39;;;;;;;72.60;41.00;;;;;;;3.78;74.44;97152.28;102756;1318;97906;-69
2021/11/28 06:09:08;;;;;;;70.90;40.70;;;;;;;3.78;74.49;97149.41;102859;1321;111463;-68
2021/11/28 06:11:36;;;;;;;71.50;43.00;;;;;;;3.80;74.61;97154.02;102837;1319;97000;-68
2021/11/28 06:14:04;;;;;;;77.60;43.10;;;;;;;3.82;74.44;97159.15;102752;1325;108284;-68
2021/11/28 06:16:34;;;;;;;83.70;46.30;;;;;;;3.83;74.39;97156.91;102773;1321;98030;-69
2021/11/28 06:19:05;;;;;;;93.10;50.70;;;;;;;3.85;74.45;97150.83;102822;1321;98077;-67
2021/11/28 06:21:35;;;;;;;90.50;49.70;;;;;;;3.86;74.56;97152.32;102851;1319;112128;-69
2021/11/28 06:24:06;;;;;;;88.10;49.20;;;;;;;3.87;74.49;97161.02;102883;1319;98002;-68
2021/11/28 06:26:35;;;;;;;81.90;47.40;;;;;;;3.89;74.39;97161.80;102939;1318;108458;-68
2021/11/28 06:29:05;;;;;;;75.00;42.90;;;;;;;3.91;74.45;97164.61;102905;1318;98024;-69
2021/11/28 06:31:37;;;;;;;74.80;42.80;;;;;;;3.91;74.56;97162.46;102913;1322;98358;-69
2021/11/28 06:34:06;;;;;;;74.90;44.90;;;;;;;3.92;74.59;97162.40;102914;1320;111511;-68
2021/11/28 06:36:35;;;;;;;69.00;41.80;;;;;;;3.93;74.41;97161.08;102840;1322;97148;-72
2021/11/28 06:39:03;;;;;;;66.70;38.80;;;;;;;3.95;74.54;97159.58;102801;1316;106752;-71
2021/11/28 06:41:31;;;;;;;63.50;38.10;;;;;;;3.96;74.54;97155.83;102833;1320;95278;-71
2021/11/28 06:43:58;;;;;;;62.00;37.60;;;;;;;3.96;74.55;97157.72;102782;1322;97931;-71
2021/11/28 06:46:26;;;;;;;66.20;38.10;;;;;;;3.96;74.54;97157.55;102893;1317;111114;-70
2021/11/28 06:48:55;;;;;;;61.90;35.80;;;;;;;3.95;74.42;97154.61;102914;1321;97951;-68
2021/11/28 06:51:24;;;;;;;61.90;35.10;;;;;;;3.94;74.31;97157.85;102787;1326;107843;-67
2021/11/28 06:53:51;;;;;;;63.20;36.30;;;;;;;3.95;74.56;97158.33;102730;1319;98154;-69
2021/11/28 06:56:19;;;;;;;61.50;36.60;;;;;;;3.96;74.57;97161.91;102769;1321;98003;-70
2021/11/28 06:58:47;;;;;;;60.70;37.00;;;;;;;3.98;74.50;97161.78;102705;1322;111607;-70
2021/11/28 07:01:16;;;;;;;65.90;38.50;;;;;;;3.98;74.53;97159.66;102829;1318;97831;-69
2021/11/28 07:03:45;;;;;;;67.30;38.30;;;;;;;3.98;74.64;97158.08;102730;1322;106571;-70
2021/11/28 07:06:13;;;;;;;62.00;36.70;;;;;;;3.97;74.71;97152.36;102781;1318;95989;-71
2021/11/28 07:08:41;;;;;;;66.20;39.00;;;;;;;3.99;74.56;97148.20;102771;1320;97960;-70
2021/11/28 07:11:09;;;;;;;65.80;39.30;;;;;;;4.01;74.59;97149.95;102626;1322;112920;-70
2021/11/28 07:13:36;;;;;;;65.40;38.00;;;;;;;4.03;74.51;97149.13;102867;1318;97972;-70
2021/11/28 07:16:04;;;;;;;66.50;39.50;;;;;;;4.05;74.50;97153.71;102755;1318;108400;-71
2021/11/28 07:18:38;;;;;;;64.00;39.60;;;;;;;4.07;74.64;97152.19;102787;1318;97912;-69
2021/11/28 07:21:09;;;;;;;72.10;40.60;;;;;;;4.09;74.45;97149.20;102834;1320;95226;-68
2021/11/28 07:23:40;;;;;;;73.80;42.60;;;;;;;4.10;74.60;97143.48;102825;1321;112145;-70
2021/11/28 07:26:10;;;;;;;68.30;40.60;;;;;;;4.13;74.61;97139.20;102702;1321;96601;-70
2021/11/28 07:28:40;;;;;;;73.10;41.20;;;;;;;4.15;74.30;97134.65;102896;1318;108426;-69
2021/11/28 07:31:08;;;;;;;74.40;44.10;;;;;;;4.19;74.57;97136.69;102787;1318;98020;-70
2021/11/28 07:33:39;;;;;;;85.70;49.40;;;;;;;4.22;74.69;97134.73;102775;1321;97979;-69
2021/11/28 07:36:10;;;;;;;110.30;61.70;;;;;;;4.25;74.66;97131.30;102786;1321;111576;-68
2021/11/28 07:38:38;;;;;;;133.50;75.80;;;;;;;4.28;74.63;97125.09;102899;1318;97886;-69
2021/11/28 07:41:09;;;;;;;146.30;82.80;;;;;;;4.32;74.71;97127.41;102917;1322;107308;-69
2021/11/28 07:43:38;;;;;;;135.40;76.70;;;;;;;4.36;74.69;97131.71;102856;1318;99265;-69
2021/11/28 07:46:06;;;;;;;107.80;64.00;;;;;;;4.38;74.58;97132.91;102866;1318;98435;-69
2021/11/28 07:48:39;;;;;;;107.10;62.20;;;;;;;4.40;74.60;97131.15;102825;1322;111469;-69
2021/11/28 07:51:08;;;;;;;93.60;54.80;;;;;;;4.43;74.59;97130.55;102852;1318;98137;-69
2021/11/28 07:53:38;;;;;;;79.70;45.30;;;;;;;4.46;74.64;97126.88;102916;1318;107888;-67
2021/11/28 07:56:06;;;;;;;70.40;40.20;;;;;;;4.48;74.64;97126.52;102837;1319;97942;-69
2021/11/28 07:58:42;;;;;;;67.90;39.40;;;;;;;4.51;74.54;97132.79;102927;1319;96357;-70
2021/11/28 08:01:10;;;;;;;62.20;36.00;;;;;;;4.54;74.59;97134.19;102841;1324;111488;-68
2021/11/28 08:03:38;;;;;;;56.20;33.80;;;;;;;4.54;74.48;97135.36;102815;1325;98077;-68
2021/11/28 08:06:08;;;;;;;59.40;34.40;;;;;;;4.51;74.42;97131.72;102980;1319;108494;-71
2021/11/28 08:08:37;;;;;;;59.30;34.00;;;;;;;4.50;74.51;97130.98;102886;1319;95907;-70
2021/11/28 08:11:06;;;;;;;55.20;31.90;;;;;;;4.53;74.53;97123.36;103027;1319;97883;-70
2021/11/28 08:13:36;;;;;;;58.10;33.80;;;;;;;4.57;74.54;97119.36;102846;1325;112081;-70
2021/11/28 08:16:10;;;;;;;57.90;33.50;;;;;;;4.60;74.63;97125.92;102870;1318;96373;-73
2021/11/28 08:18:39;;;;;;;66.40;38.90;;;;;;;4.63;74.56;97121.69;102855;1325;107894;-69
2021/11/28 08:21:14;;;;;;;58.20;34.30;;;;;;;4.65;74.56;97124.73;102834;1322;97962;-70
2021/11/28 08:23:42;;;;;;;57.30;32.20;;;;;;;4.61;74.35;97126.88;102913;1322;97955;-69
2021/11/28 08:26:13;;;;;;;58.50;34.30;;;;;;;4.58;74.24;97125.70;102835;1321;112657;-70
2021/11/28 08:28:41;;;;;;;60.10;35.30;;;;;;;4.51;74.16;97122.96;102857;1319;97968;-68
2021/11/28 08:31:12;;;;;;;58.20;34.40;;;;;;;4.45;74.43;97122.54;102793;1318;108645;-72
2021/11/28 08:33:40;;;;;;;60.10;36.00;;;;;;;4.41;74.39;97123.24;102848;1321;97905;-69
2021/11/28 08:36:08;;;;;;;63.30;37.20;;;;;;;4.39;74.47;97124.08;102810;1322;97931;-72
2021/11/28 08:38:42;;;;;;;59.10;35.50;;;;;;;4.36;74.42;97123.44;102844;1319;110540;-73
2021/11/28 08:41:14;;;;;;;63.90;35.50;;;;;;;4.37;74.50;97119.12;102850;1312;97933;-72
2021/11/28 08:43:43;;;;;;;60.90;36.30;;;;;;;4.42;74.60;97122.84;102822;1319;106966;-72
2021/11/28 08:46:11;;;;;;;59.60;35.20;;;;;;;4.47;74.70;97121.01;102829;1319;98445;-71
2021/11/28 08:48:40;;;;;;;58.40;35.10;;;;;;;4.53;74.66;97120.35;102762;1321;98034;-72
2021/11/28 08:51:12;;;;;;;100.50;61.40;;;;;;;4.60;74.66;97115.55;102724;1318;112417;-71
2021/11/28 08:53:44;;;;;;;91.50;54.50;;;;;;;4.68;74.72;97116.04;102908;1319;98461;-69
2021/11/28 08:56:14;;;;;;;68.40;38.20;;;;;;;4.73;74.64;97108.75;102853;1322;107773;-68
2021/11/28 08:58:41;;;;;;;57.50;34.20;;;;;;;4.78;74.70;97110.48;102725;1321;97895;-71
2021/11/28 09:01:10;;;;;;;51.80;33.00;;;;;;;4.83;74.64;97101.32;102816;1320;97933;-71
2021/11/28 09:03:39;;;;;;;59.00;33.80;;;;;;;4.87;74.67;97098.31;102687;1322;112158;-68
2021/11/28 09:06:08;;;;;;;55.50;31.80;;;;;;;4.92;74.61;97096.89;102910;1318;97847;-68
2021/11/28 09:08:41;;;;;;;54.20;32.60;;;;;;;4.96;74.63;97093.92;102864;1320;108414;-67
2021/11/28 09:11:11;;;;;;;57.10;32.50;;;;;;;5.01;74.60;97093.73;102763;1321;98735;-68
2021/11/28 09:13:39;;;;;;;76.10;44.60;;;;;;;5.05;74.68;97092.67;102815;1322;97081;-69
2021/11/28 09:16:11;;;;;;;105.30;60.10;;;;;;;5.10;74.75;97094.21;102706;1319;112391;-68
2021/11/28 09:18:46;;;;;;;61.30;38.80;;;;;;;5.16;74.77;97100.92;102697;1322;97914;-69
2021/11/28 09:21:16;;;;;;;51.70;29.40;;;;;;;5.20;74.70;97097.92;102927;1320;105838;-69
2021/11/28 09:26:34;;;;;;;54.50;32.10;;;;;;;5.26;74.58;97100.16;102842;1325;97929;-69
2021/11/28 09:29:04;;;;;;;52.10;29.70;;;;;;;5.27;74.55;97102.52;102790;1322;111598;-70
2021/11/28 09:31:32;;;;;;;49.40;29.30;;;;;;;5.26;74.54;97109.04;102788;1322;98010;-68
2021/11/28 09:34:02;;;;;;;50.50;28.80;;;;;;;5.29;74.59;97109.23;102783;1318;109139;-67
2021/11/28 09:36:32;;;;;;;47.10;27.90;;;;;;;5.30;74.52;97106.48;102585;1318;97107;-68
2021/11/28 09:39:02;;;;;;;47.90;28.10;;;;;;;5.32;74.47;97103.08;102723;1319;97871;-67
2021/11/28 09:41:55;;;;;;;53.10;30.60;;;;;;;5.37;74.69;97104.51;102719;1318;112146;-68
2021/11/28 09:44:26;;;;;;;59.10;33.40;;;;;;;5.40;74.62;97100.37;102725;1319;96589;-68
2021/11/28 09:46:55;;;;;;;58.30;34.00;;;;;;;5.43;74.61;97091.31;102667;1318;108458;-70
2021/11/28 09:49:26;;;;;;;52.50;30.50;;;;;;;5.45;74.64;97092.08;102246;1318;97153;-69
2021/11/28 09:51:56;;;;;;;55.40;31.80;;;;;;;5.47;74.50;97091.01;102743;1318;97295;-69
2021/11/28 09:54:25;;;;;;;55.60;32.20;;;;;;;5.49;74.58;97080.29;102776;1318;111079;-70
2021/11/28 09:56:53;;;;;;;53.40;31.80;;;;;;;5.54;74.61;97078.12;102701;1319;97948;-68
2021/11/28 09:59:22;;;;;;;50.10;30.00;;;;;;;5.59;74.59;97077.36;102695;1318;108810;-68
2021/11/28 10:01:50;;;;;;;50.50;29.80;;;;;;;5.62;74.67;97077.23;102718;1318;97887;-68
2021/11/28 10:04:19;;;;;;;49.70;29.20;;;;;;;5.65;74.46;97073.35;102704;1318;97920;-68
2021/11/28 10:06:48;;;;;;;47.60;28.90;;;;;;;5.67;74.74;97071.55;102701;1318;112391;-71
2021/11/28 10:09:16;;;;;;;48.70;29.60;;;;;;;5.70;74.65;97063.81;102774;1322;96449;-69
2021/11/28 10:12:16;;;;;;;77.30;49.00;;;;;;;5.72;74.49;97060.42;102797;1318;108222;-68
2021/11/28 10:14:48;;;;;;;52.30;31.40;;;;;;;5.74;74.58;97059.55;102377;1326;98008;-67
2021/11/28 10:17:18;;;;;;;50.80;29.90;;;;;;;5.75;74.59;97061.02;102865;1318;98000;-68
2021/11/28 10:19:47;;;;;;;45.10;27.40;;;;;;;5.78;74.46;97058.21;102767;1319;112250;-68
2021/11/28 10:22:16;;;;;;;46.60;25.10;;;;;;;5.78;74.51;97057.10;102597;1321;98024;-68
2021/11/28 10:25:00;;;;;;;45.50;27.80;;;;;;;5.77;74.47;97056.31;102665;1321;108623;-67
2021/11/28 10:27:41;;;;;;;47.10;28.00;;;;;;;5.79;74.30;97054.52;102789;1319;97983;-68
2021/11/28 10:30:13;;;;;;;48.20;27.50;;;;;;;5.81;74.37;97053.89;102676;1319;97974;-68
2021/11/28 10:32:50;;;;;;;43.90;27.20;;;;;;;5.82;74.54;97051.14;102639;1318;111924;-69
2021/11/28 10:35:20;;;;;;;45.10;24.70;;;;;;;5.82;74.53;97038.98;102705;1319;97847;-68
2021/11/28 10:37:51;;;;;;;46.20;28.00;;;;;;;5.79;74.25;97031.67;102676;1319;105469;-69
2021/11/28 10:40:25;;;;;;;42.20;24.10;;;;;;;5.80;74.54;97027.39;102823;1323;95320;-70
2021/11/28 10:43:09;;;;;;;44.20;25.30;;;;;;;5.84;74.25;97026.71;102801;1319;97970;-69
2021/11/28 10:45:51;;;;;;;48.80;27.20;;;;;;;5.87;74.43;97015.23;102755;1319;111677;-68
2021/11/28 10:48:27;;;;;;;66.40;36.60;;;;;;;5.95;74.45;97007.05;102739;1322;99384;-69
2021/11/28 10:51:00;;;;;;;54.60;32.60;;;;;;;6.07;74.64;97005.97;102696;1322;108609;-67
2021/11/28 10:53:30;;;;;;;53.50;32.10;;;;;;;6.14;74.54;97005.13;102550;1318;149008;-70
2021/11/28 10:56:00;;;;;;;58.10;33.60;;;;;;;6.17;74.32;97007.02;102720;1322;98570;-68
2021/11/28 10:58:31;;;;;;;56.90;33.90;;;;;;;6.19;74.43;97004.01;102723;1321;112227;-69
2021/11/28 11:01:09;;;;;;;61.10;35.40;;;;;;;6.20;74.22;96995.11;102847;1322;98085;-68
2021/11/28 11:03:52;;;;;;;52.90;31.80;;;;;;;6.15;74.37;96990.95;102750;1322;108527;-69
2021/11/28 11:06:24;;;;;;;58.00;32.80;;;;;;;6.13;74.48;96986.04;102710;1322;97884;-67
2021/11/28 11:09:17;;;;;;;54.00;30.90;;;;;;;6.18;74.53;96978.43;102937;1319;97953;-68
2021/11/28 11:11:47;;;;;;;51.00;30.70;;;;;;;6.24;74.52;96982.11;102789;1325;111860;-69
2021/11/28 11:14:16;;;;;;;52.10;29.70;;;;;;;6.25;74.34;96980.08;102775;1318;97791;-68
2021/11/28 11:16:49;;;;;;;54.30;31.80;;;;;;;6.28;74.52;96978.63;102751;1319;108462;-67
2021/11/28 11:19:31;;;;;;;50.10;29.80;;;;;;;6.34;74.34;96979.85;102624;1321;98002;-68
2021/11/28 11:22:11;;;;;;;53.70;31.50;;;;;;;6.37;74.57;96979.36;102701;1318;96523;-68
2021/11/28 11:24:45;;;;;;;50.20;27.60;;;;;;;6.40;74.36;96978.55;102709;1318;111219;-69
2021/11/28 11:27:18;;;;;;;49.50;28.00;;;;;;;6.40;74.55;96980.64;102772;1319;97926;-68
2021/11/28 11:29:50;;;;;;;48.40;29.40;;;;;;;6.42;74.40;96985.63;102690;1322;108328;-67
2021/11/28 11:32:24;;;;;;;48.50;27.80;;;;;;;6.46;74.50;96984.10;102838;1319;96649;-67
2021/11/28 11:34:56;;;;;;;46.50;28.00;;;;;;;6.48;74.53;96983.55;102783;1318;97908;-67
2021/11/28 11:37:33;;;;;;;43.40;25.90;;;;;;;6.50;74.31;96981.61;102762;1318;112138;-66
2021/11/28 11:40:08;;;;;;;44.90;27.30;;;;;;;6.41;74.05;96981.48;102749;1318;96435;-66